createdAt,value
2019-03-25T00:00:47.623Z,26.40
2019-03-25T00:05:38.932Z,23.50
2019-03-25T00:10:30.361Z,23.00
2019-03-25T00:15:21.686Z,20.00
2019-03-25T00:20:13.123Z,23.50
2019-03-25T00:25:06.754Z,22.00
2019-03-25T00:29:58.143Z,21.40
2019-03-25T00:34:49.548Z,21.50
2019-03-25T00:39:40.960Z,20.90
2019-03-25T00:44:34.612Z,20.90
2019-03-25T00:49:25.958Z,17.40
2019-03-25T00:54:19.647Z,17.20
2019-03-25T00:59:13.298Z,14.30
2019-03-25T01:04:04.709Z,12.70
2019-03-25T01:08:56.103Z,13.90
2019-03-25T01:13:47.458Z,10.90
2019-03-25T01:18:41.125Z,9.20
2019-03-25T01:23:34.819Z,10.20
2019-03-25T01:28:26.183Z,7.70
2019-03-25T01:33:17.596Z,6.40
2019-03-25T01:38:08.965Z,6.90
2019-03-25T01:43:00.345Z,7.10
2019-03-25T01:47:51.709Z,6.80
2019-03-25T01:52:43.145Z,5.80
2019-03-25T01:57:34.484Z,6.60
2019-03-25T02:02:25.909Z,5.50
2019-03-25T02:07:17.261Z,4.90
2019-03-25T02:12:08.641Z,5.30
2019-03-25T02:17:00.008Z,5.00
2019-03-25T02:21:53.677Z,4.60
2019-03-25T02:26:45.042Z,5.70
2019-03-25T02:31:36.511Z,4.20
2019-03-25T02:36:30.162Z,4.10
2019-03-25T02:41:21.512Z,4.80
2019-03-25T02:46:12.928Z,29.20
2019-03-25T02:51:04.218Z,5.10
2019-03-25T02:55:55.691Z,6.30
2019-03-25T03:00:47.047Z,6.10
2019-03-25T03:05:38.445Z,3.60
2019-03-25T03:10:32.100Z,3.90
2019-03-25T03:15:23.417Z,4.10
2019-03-25T03:20:17.144Z,3.10
2019-03-25T03:25:08.508Z,4.10
2019-03-25T03:29:59.883Z,4.20
2019-03-25T03:34:51.327Z,5.20
2019-03-25T03:39:49.486Z,4.00
2019-03-25T03:44:40.874Z,5.30
2019-03-25T03:49:32.193Z,4.90
2019-03-25T03:54:23.655Z,6.00
2019-03-25T03:59:15.016Z,5.30
2019-03-25T04:04:06.386Z,5.50
2019-03-25T04:08:57.747Z,4.80
2019-03-25T04:13:49.225Z,5.30
2019-03-25T04:18:45.135Z,5.10
2019-03-25T04:23:36.464Z,5.60
2019-03-25T04:28:27.883Z,6.70
2019-03-25T04:33:21.573Z,5.00
2019-03-25T04:38:12.895Z,5.30
2019-03-25T04:43:06.579Z,5.00
2019-03-25T04:48:00.169Z,4.50
2019-03-25T04:52:51.569Z,5.70
2019-03-25T04:57:45.219Z,5.80
2019-03-25T05:02:36.662Z,5.50
2019-03-25T05:07:33.069Z,5.10
2019-03-25T05:12:24.466Z,5.50
2019-03-25T05:17:15.776Z,5.90
2019-03-25T05:22:07.145Z,4.90
2019-03-25T05:27:00.846Z,5.10
2019-03-25T05:31:52.285Z,4.90
2019-03-25T05:36:43.634Z,5.30
2019-03-25T05:41:35.087Z,4.90
2019-03-25T05:46:26.378Z,17.50
2019-03-25T05:51:22.415Z,4.90
2019-03-25T05:56:16.032Z,6.80
2019-03-25T06:01:07.435Z,5.40
2019-03-25T06:05:58.746Z,5.90
2019-03-25T06:10:50.190Z,5.40
2019-03-25T06:15:41.541Z,6.70
2019-03-25T06:20:35.223Z,7.50
2019-03-25T06:25:26.541Z,7.00
2019-03-25T06:30:18.002Z,6.80
2019-03-25T06:35:09.375Z,7.10
2019-03-25T06:40:00.709Z,8.40
2019-03-25T06:44:52.234Z,8.60
2019-03-25T06:49:45.890Z,9.60
2019-03-25T06:54:37.324Z,9.30
2019-03-25T06:59:28.659Z,8.30
2019-03-25T07:04:20.069Z,11.80
2019-03-25T07:09:11.410Z,9.80
2019-03-25T07:14:02.863Z,9.20
2019-03-25T07:18:54.217Z,10.80
2019-03-25T07:23:45.622Z,9.20
2019-03-25T07:28:38.695Z,8.00
2019-03-25T07:33:28.348Z,8.30
2019-03-25T07:38:22.037Z,8.20
2019-03-25T07:43:13.484Z,10.80
2019-03-25T07:48:04.898Z,9.20
2019-03-25T07:52:58.502Z,17.60
2019-03-25T07:58:10.251Z,8.70
2019-03-25T08:03:01.714Z,8.40
2019-03-25T08:07:53.037Z,7.60
2019-03-25T08:12:46.717Z,7.80
2019-03-25T08:17:38.106Z,6.50
2019-03-25T08:22:31.704Z,6.90
2019-03-25T08:27:25.376Z,5.80
2019-03-25T08:32:16.766Z,6.90
2019-03-25T08:37:08.130Z,5.40
2019-03-25T08:41:59.497Z,5.10
2019-03-25T08:46:55.415Z,5.10
2019-03-25T08:51:46.804Z,4.10
2019-03-25T08:56:38.212Z,4.50
2019-03-25T09:01:29.596Z,5.90
2019-03-25T09:06:23.201Z,4.50
2019-03-25T09:11:14.606Z,6.10
2019-03-25T09:16:05.950Z,23.90
2019-03-25T09:20:59.700Z,6.40
2019-03-25T09:25:51.030Z,4.00
2019-03-25T09:30:42.407Z,5.60
2019-03-25T09:35:33.908Z,6.70
2019-03-25T09:40:25.223Z,4.00
2019-03-25T09:45:16.638Z,5.40
2019-03-25T09:50:14.778Z,4.30
2019-03-25T09:55:08.409Z,7.40
2019-03-25T10:00:11.113Z,7.20
2019-03-25T10:05:02.626Z,6.30
2019-03-25T10:09:56.241Z,6.50
2019-03-25T10:14:47.687Z,7.40
2019-03-25T10:19:41.341Z,4.90
2019-03-25T10:24:32.672Z,7.00
2019-03-25T10:29:28.636Z,6.40
2019-03-25T10:34:22.301Z,7.60
2019-03-25T10:39:13.659Z,7.80
2019-03-25T10:44:05.059Z,6.40
2019-03-25T10:48:58.693Z,8.80
2019-03-25T10:53:50.084Z,7.10
2019-03-25T10:58:41.523Z,6.70
2019-03-25T11:03:32.893Z,5.60
2019-03-25T11:08:24.243Z,6.30
2019-03-25T11:13:17.857Z,6.60
2019-03-25T11:18:09.271Z,8.80
2019-03-25T11:23:09.745Z,7.20
2019-03-25T11:28:05.641Z,7.30
2019-03-25T11:32:57.094Z,8.20
2019-03-25T11:37:48.438Z,7.20
2019-03-25T11:42:39.809Z,7.10
2019-03-25T11:47:31.197Z,6.10
2019-03-25T11:52:22.710Z,7.70
2019-03-25T11:57:14.060Z,5.70
2019-03-25T12:02:17.063Z,5.80
2019-03-25T12:06:59.083Z,7.50
2019-03-25T12:11:50.457Z,4.80
2019-03-25T12:16:41.859Z,5.70
2019-03-25T12:21:35.579Z,5.10
2019-03-25T12:26:31.505Z,5.40
2019-03-25T12:31:29.751Z,5.00
2019-03-25T12:36:21.132Z,5.60
2019-03-25T12:41:12.532Z,4.80
2019-03-25T12:46:03.852Z,5.70
2019-03-25T12:50:55.354Z,4.70
2019-03-25T12:55:46.635Z,4.40
2019-03-25T13:00:38.136Z,5.90
2019-03-25T13:05:29.818Z,6.00
2019-03-25T13:10:21.180Z,4.80
2019-03-25T13:15:12.655Z,7.30
2019-03-25T13:20:03.974Z,6.10
2019-03-25T13:24:55.403Z,5.50
2019-03-25T13:29:52.307Z,6.00
2019-03-25T13:34:38.301Z,2.80
2019-03-25T13:39:29.658Z,3.90
2019-03-25T13:44:21.038Z,3.30
2019-03-25T13:49:12.477Z,3.60
2019-03-25T13:54:03.823Z,2.80
2019-03-25T13:58:55.207Z,2.50
2019-03-25T14:03:46.662Z,4.00
2019-03-25T14:08:38.059Z,2.10
2019-03-25T14:13:29.419Z,2.90
2019-03-25T14:18:20.868Z,2.70
2019-03-25T14:23:12.191Z,2.50
2019-03-25T14:28:03.579Z,2.00
2019-03-25T14:32:55.012Z,2.20
2019-03-25T14:37:46.418Z,2.10
2019-03-25T14:42:37.817Z,3.00
2019-03-25T14:47:29.228Z,1.90
2019-03-25T14:52:20.580Z,2.20
2019-03-25T14:57:11.982Z,2.30
2019-03-25T15:02:03.338Z,2.50
2019-03-25T15:06:54.728Z,1.60
2019-03-25T15:11:46.099Z,2.50
2019-03-25T15:16:37.520Z,2.20
2019-03-25T15:21:28.997Z,2.10
2019-03-25T15:26:20.349Z,3.50
2019-03-25T15:31:11.677Z,2.30
2019-03-25T15:36:03.174Z,2.50
2019-03-25T15:40:54.504Z,2.70
2019-03-25T15:45:45.901Z,2.10
2019-03-25T15:50:37.277Z,2.40
2019-03-25T15:55:28.612Z,1.80
2019-03-25T16:00:20.045Z,2.30
2019-03-25T16:05:11.470Z,1.90
2019-03-25T16:10:02.794Z,2.30
2019-03-25T16:14:54.200Z,1.90
2019-03-25T16:19:45.587Z,1.90
2019-03-25T16:24:37.072Z,1.70
2019-03-25T16:29:28.470Z,1.90
2019-03-25T16:34:19.770Z,3.00
2019-03-25T16:39:11.249Z,2.50
2019-03-25T16:44:02.626Z,1.60
2019-03-25T16:48:55.221Z,1.60
2019-03-25T16:53:45.391Z,1.70
2019-03-25T16:58:36.856Z,1.90
2019-03-25T17:03:28.183Z,1.60
2019-03-25T17:08:19.682Z,2.00
2019-03-25T17:13:10.971Z,1.40
2019-03-25T17:18:02.427Z,2.40
2019-03-25T17:22:53.764Z,2.00
2019-03-25T17:27:45.234Z,2.10
2019-03-25T17:32:36.640Z,2.80
2019-03-25T17:37:27.990Z,4.70
2019-03-25T17:42:19.504Z,2.40
2019-03-25T17:47:10.760Z,3.00
2019-03-25T17:52:02.176Z,2.40
2019-03-25T17:56:53.616Z,3.10
2019-03-25T18:01:44.998Z,2.80
2019-03-25T18:06:36.500Z,1.90
2019-03-25T18:11:27.698Z,1.70
2019-03-25T18:16:19.422Z,39.70
2019-03-25T18:21:10.469Z,1.70
2019-03-25T18:26:02.350Z,1.90
2019-03-25T18:30:53.338Z,2.20
2019-03-25T18:35:44.766Z,8.80
2019-03-25T18:40:36.094Z,6.90
2019-03-25T18:45:27.990Z,6.50
2019-03-25T18:50:21.215Z,4.00
2019-03-25T18:55:12.652Z,3.00
2019-03-25T19:00:03.968Z,2.90
2019-03-25T19:04:57.732Z,3.20
2019-03-25T19:09:49.017Z,3.70
2019-03-25T19:14:40.403Z,2.80
2019-03-25T19:19:34.007Z,3.20
2019-03-25T19:24:27.841Z,4.30
2019-03-25T19:29:21.363Z,2.40
2019-03-25T19:34:12.864Z,4.20
2019-03-25T19:39:04.122Z,2.60
2019-03-25T19:43:55.572Z,4.10
2019-03-25T19:48:49.153Z,3.20
2019-03-25T19:53:40.536Z,3.30
2019-03-25T19:58:34.194Z,3.10
2019-03-25T20:03:25.902Z,2.40
2019-03-25T20:08:16.937Z,3.30
2019-03-25T20:13:08.391Z,3.30
2019-03-25T20:17:59.676Z,4.10
2019-03-25T20:22:51.135Z,3.90
2019-03-25T20:27:44.785Z,6.00
2019-03-25T20:32:36.256Z,4.60
2019-03-25T20:37:29.912Z,4.70
2019-03-25T20:42:21.335Z,4.00
2019-03-25T20:47:12.681Z,4.40
2019-03-25T20:52:04.102Z,6.10
2019-03-25T20:56:55.530Z,4.40
2019-03-25T21:01:46.801Z,3.00
2019-03-25T21:06:39.274Z,5.50
2019-03-25T21:11:32.498Z,4.40
2019-03-25T21:16:23.996Z,15.90
2019-03-25T21:21:15.336Z,4.80
2019-03-25T21:26:06.904Z,4.10
2019-03-25T21:30:58.138Z,4.30
2019-03-25T21:35:49.525Z,6.90
2019-03-25T21:40:40.817Z,6.10
2019-03-25T21:45:34.574Z,6.10
2019-03-25T21:50:25.865Z,6.90
2019-03-25T21:55:19.663Z,8.60
2019-03-25T22:00:10.856Z,10.10
2019-03-25T22:05:04.597Z,9.50
2019-03-25T22:09:55.894Z,10.70
2019-03-25T22:14:49.645Z,10.70
2019-03-25T22:19:41.003Z,10.30
2019-03-25T22:24:32.391Z,8.60
2019-03-25T22:29:26.155Z,9.70
2019-03-25T22:34:17.670Z,11.30
2019-03-25T22:39:08.951Z,10.50
2019-03-25T22:44:02.688Z,10.20
2019-03-25T22:48:54.031Z,10.50
2019-03-25T22:53:45.562Z,11.40
2019-03-25T22:58:36.809Z,9.90
2019-03-25T23:03:38.400Z,10.40
2019-03-25T23:08:21.879Z,9.60
2019-03-25T23:13:13.634Z,10.40
2019-03-25T23:18:04.681Z,10.50
2019-03-25T23:23:01.154Z,13.40
2019-03-25T23:27:47.545Z,12.10
2019-03-25T23:32:38.930Z,13.20
2019-03-25T23:37:30.299Z,11.80
2019-03-25T23:42:23.929Z,10.80
2019-03-25T23:47:17.641Z,10.30
2019-03-25T23:52:08.997Z,12.70
2019-03-25T23:57:02.597Z,12.10
